Time;durP1;ratioP1;P1;durP2;ratioP2;P2;SDS_P1;SDS_P2;PMS_P1;PMS_P2;Temp;Humidity;BMP_temperature;BMP_pressure;BME280_temperature;BME280_humidity;BME280_pressure;Samples;Min_cycle;Max_cycle;Signal;HPM_P1;HPM_P2
2022/07/21 00:01:56;;;;;;;30.57;18.17;;;21.00;63.90;;;;;;5054648;28;20471;-68
2022/07/21 00:04:22;;;;;;;26.87;20.80;;;20.90;64.50;;;;;;5053908;28;20191;-68
2022/07/21 00:06:48;;;;;;;26.83;18.70;;;20.90;69.20;;;;;;5054515;28;20417;-74
2022/07/21 00:09:14;;;;;;;19.40;16.37;;;20.90;71.40;;;;;;5054551;28;20269;-68
2022/07/21 00:18:46;;;;;;;25.33;18.30;;;20.80;85.30;;;;;;5054250;28;20381;-68
2022/07/21 00:21:12;;;;;;;22.13;15.90;;;20.80;83.50;;;;;;5054358;28;20385;-68
2022/07/21 00:23:39;;;;;;;23.77;17.37;;;20.80;80.00;;;;;;5053753;28;20829;-74
2022/07/21 00:26:05;;;;;;;20.27;16.70;;;20.70;89.90;;;;;;5054090;28;20646;-68
2022/07/21 00:28:31;;;;;;;20.87;16.27;;;20.70;91.10;;;;;;5052284;28;20894;-69
2022/07/21 00:30:57;;;;;;;24.73;18.60;;;20.70;90.40;;;;;;5053716;28;20484;-68
2022/07/21 00:33:23;;;;;;;32.20;17.60;;;20.70;94.30;;;;;;5052404;28;20460;-73
2022/07/21 00:35:52;;;;;;;25.30;17.20;;;20.70;91.50;;;;;;5054056;28;20402;-68
2022/07/21 00:38:31;;;;;;;25.03;18.60;;;20.60;94.80;;;;;;5052907;28;20225;-74
2022/07/21 00:40:57;;;;;;;19.87;15.73;;;20.50;94.80;;;;;;5053745;28;20425;-73
2022/07/21 00:43:28;;;;;;;24.70;18.20;;;20.50;95.30;;;;;;5053165;28;20428;-74
2022/07/21 00:45:56;;;;;;;28.70;16.50;;;20.50;95.80;;;;;;5053398;28;20410;-74
2022/07/21 00:48:22;;;;;;;22.17;16.03;;;20.50;95.90;;;;;;5053626;28;20405;-74
2022/07/21 00:50:48;;;;;;;25.70;16.53;;;20.50;95.90;;;;;;5053760;28;20405;-74
2022/07/21 00:53:15;;;;;;;22.30;16.67;;;20.50;95.80;;;;;;5053190;28;20459;-68
2022/07/21 00:55:44;;;;;;;25.00;17.07;;;20.40;95.80;;;;;;5053522;28;20409;-73
2022/07/21 00:58:11;;;;;;;26.60;16.93;;;20.40;95.90;;;;;;5052437;28;20402;-74
2022/07/21 01:00:37;;;;;;;22.97;16.20;;;20.40;95.80;;;;;;5053590;28;20398;-74
2022/07/21 01:03:03;;;;;;;22.03;16.33;;;20.40;95.80;;;;;;5052266;28;20410;-74
2022/07/21 01:05:29;;;;;;;26.10;16.50;;;20.40;95.80;;;;;;5053305;28;20508;-68
2022/07/21 01:08:02;;;;;;;26.00;17.40;;;20.30;95.80;;;;;;5053602;28;20396;-68
2022/07/21 01:10:29;;;;;;;30.33;18.57;;;20.30;96.10;;;;;;5053467;28;20447;-68
2022/07/21 01:12:55;;;;;;;27.93;17.27;;;20.30;99.90;;;;;;5052584;28;20456;-69
2022/07/21 01:15:23;;;;;;;30.90;16.47;;;20.30;99.90;;;;;;5053376;28;20421;-68
2022/07/21 01:17:49;;;;;;;20.50;16.70;;;20.30;99.90;;;;;;5053308;28;20405;-68
2022/07/21 01:20:17;;;;;;;28.93;17.50;;;20.30;99.90;;;;;;5052900;28;20424;-68
2022/07/21 01:22:45;;;;;;;26.33;16.93;;;20.20;99.90;;;;;;5052336;28;20402;-68
2022/07/21 01:25:12;;;;;;;19.43;16.40;;;20.20;96.90;;;;;;5053229;28;20432;-74
2022/07/21 01:27:38;;;;;;;21.97;16.60;;;20.20;99.90;;;;;;5053283;28;20397;-68
2022/07/21 01:30:07;;;;;;;21.97;16.43;;;20.10;99.90;;;;;;5053483;28;20451;-68
2022/07/21 01:32:35;;;;;;;28.10;17.13;;;20.00;99.90;;;;;;5052498;28;20481;-68
2022/07/21 01:35:01;;;;;;;24.50;17.60;;;20.00;99.90;;;;;;5053017;28;20425;-68
2022/07/21 01:37:30;;;;;;;19.80;17.47;;;20.00;99.90;;;;;;5053064;28;20405;-73
2022/07/21 01:42:41;;;;;;;21.20;16.00;;;20.00;99.90;;;;;;5052529;28;20815;-74
2022/07/21 01:45:07;;;;;;;27.50;16.40;;;20.00;99.90;;;;;;5055669;28;20492;-73
2022/07/21 01:47:34;;;;;;;21.30;16.67;;;19.90;99.90;;;;;;5057078;28;20404;-74
2022/07/21 01:50:06;;;;;;;20.70;15.83;;;20.00;99.90;;;;;;5055874;28;20755;-73
2022/07/21 01:52:32;;;;;;;26.23;16.53;;;19.90;99.90;;;;;;5056388;28;20535;-74
2022/07/21 01:54:58;;;;;;;21.90;16.17;;;19.90;99.90;;;;;;5056348;28;20828;-70
2022/07/21 01:57:24;;;;;;;23.27;16.67;;;19.90;99.90;;;;;;5056936;28;20397;-74
2022/07/21 01:59:50;;;;;;;19.70;16.23;;;19.90;99.90;;;;;;5057058;28;20199;-68
2022/07/21 02:02:20;;;;;;;21.27;17.17;;;19.90;99.90;;;;;;5056425;28;20163;-73
2022/07/21 02:04:47;;;;;;;20.07;15.83;;;19.90;99.90;;;;;;5056881;28;20301;-68
2022/07/21 02:07:12;;;;;;;21.00;18.53;;;19.90;99.90;;;;;;5056860;28;20411;-73
2022/07/21 02:09:38;;;;;;;20.47;17.53;;;19.90;99.90;;;;;;5056680;28;20405;-68
2022/07/21 02:12:05;;;;;;;22.37;15.97;;;19.90;99.90;;;;;;5055747;28;20197;-69
2022/07/21 02:14:31;;;;;;;19.67;16.50;;;19.80;99.90;;;;;;5056044;28;20219;-68
2022/07/21 02:16:57;;;;;;;24.03;15.90;;;19.80;99.90;;;;;;5056591;28;20425;-68
2022/07/21 02:19:22;;;;;;;27.27;17.10;;;19.80;99.90;;;;;;5056554;28;20586;-69
2022/07/21 02:21:48;;;;;;;25.53;16.80;;;19.80;99.90;;;;;;5055496;28;20213;-68
2022/07/21 02:24:14;;;;;;;20.13;16.60;;;19.70;99.90;;;;;;5055753;28;20183;-68
2022/07/21 02:26:40;;;;;;;27.67;15.93;;;19.70;99.90;;;;;;5056407;28;20412;-68
2022/07/21 02:29:06;;;;;;;19.07;15.80;;;19.60;99.90;;;;;;5056458;28;20189;-68
2022/07/21 02:31:33;;;;;;;20.20;16.80;;;19.60;99.90;;;;;;5055436;28;20445;-74
2022/07/21 02:33:59;;;;;;;20.10;16.60;;;19.60;99.90;;;;;;5055526;28;20190;-74
2022/07/21 02:36:25;;;;;;;20.33;17.20;;;19.60;99.90;;;;;;5056333;28;20393;-74
2022/07/21 02:38:51;;;;;;;25.37;15.97;;;19.60;99.90;;;;;;5056312;28;20167;-68
2022/07/21 02:41:17;;;;;;;27.43;17.77;;;19.60;99.90;;;;;;5056121;28;20186;-74
2022/07/21 02:43:43;;;;;;;23.70;17.77;;;19.60;99.90;;;;;;5055054;28;20417;-68
2022/07/21 02:46:09;;;;;;;27.07;16.70;;;19.60;99.90;;;;;;5055038;28;20413;-74
2022/07/21 02:48:35;;;;;;;20.33;16.40;;;19.50;99.90;;;;;;5054452;28;20258;-73
2022/07/21 02:51:01;;;;;;;29.63;18.73;;;19.60;99.90;;;;;;5055422;28;20459;-74
2022/07/21 02:53:27;;;;;;;27.50;17.10;;;19.60;99.90;;;;;;5055100;28;20449;-68
2022/07/21 02:55:53;;;;;;;26.57;17.80;;;19.60;99.90;;;;;;5053645;28;20413;-73
2022/07/21 02:58:22;;;;;;;29.03;21.07;;;19.60;99.90;;;;;;5054847;28;20441;-68
2022/07/21 03:00:52;;;;;;;31.33;18.40;;;19.60;99.90;;;;;;5054836;28;20413;-68
2022/07/21 03:03:19;;;;;;;21.17;17.70;;;19.50;99.90;;;;;;5054940;28;20417;-73
2022/07/21 03:05:45;;;;;;;27.97;19.53;;;19.40;99.90;;;;;;5054932;28;20909;-74
2022/07/21 03:08:14;;;;;;;26.70;19.50;;;19.30;99.90;;;;;;5054372;28;20418;-68
2022/07/21 03:10:40;;;;;;;22.43;17.40;;;19.20;99.90;;;;;;5055851;28;20430;-67
2022/07/21 03:16:29;;;;;;;25.73;19.90;;;18.90;99.90;;;;;;5011490;28;20924;-74
2022/07/21 03:18:55;;;;;;;24.10;19.87;;;18.80;99.90;;;;;;5044178;28;20441;-67
2022/07/21 03:21:21;;;;;;;29.60;19.30;;;18.70;99.90;;;;;;5054440;28;20405;-67
2022/07/21 03:23:50;;;;;;;25.77;18.37;;;18.70;99.90;;;;;;5052845;28;20203;-67
2022/07/21 03:26:16;;;;;;;26.60;19.23;;;18.70;99.90;;;;;;5055324;28;20404;-73
2022/07/21 03:28:43;;;;;;;30.50;19.17;;;18.70;99.90;;;;;;5055511;28;20750;-73
2022/07/21 03:31:09;;;;;;;25.27;18.40;;;18.70;99.90;;;;;;5055290;28;20405;-67
2022/07/21 03:33:35;;;;;;;36.97;20.50;;;18.80;99.90;;;;;;5054434;28;20475;-73
2022/07/21 03:36:02;;;;;;;29.00;19.70;;;18.80;99.90;;;;;;5053800;28;20460;-73
2022/07/21 03:38:28;;;;;;;28.70;19.70;;;18.80;99.90;;;;;;5055060;28;20453;-73
2022/07/21 03:40:54;;;;;;;27.70;19.00;;;18.70;99.90;;;;;;5054548;28;20398;-68
2022/07/21 03:43:20;;;;;;;21.93;18.30;;;18.80;99.90;;;;;;5053006;28;20429;-67
2022/07/21 03:45:46;;;;;;;28.83;19.27;;;18.80;99.90;;;;;;5055000;28;20405;-67
2022/07/21 03:48:12;;;;;;;24.60;18.80;;;18.80;99.90;;;;;;5053443;28;20166;-68
2022/07/21 03:50:40;;;;;;;24.90;18.90;;;18.80;99.90;;;;;;5055071;28;20402;-68
2022/07/21 03:53:09;;;;;;;21.60;18.03;;;18.80;99.90;;;;;;5054069;28;20248;-74
2022/07/21 03:55:35;;;;;;;24.07;17.43;;;18.70;99.90;;;;;;5053660;28;20790;-67
2022/07/21 03:58:06;;;;;;;22.37;17.57;;;18.80;99.90;;;;;;5054880;28;20410;-68
2022/07/21 04:07:31;;;;;;;21.83;17.90;;;18.80;99.90;;;;;;5054553;28;20376;-67
2022/07/21 04:09:57;;;;;;;27.50;17.70;;;18.80;99.90;;;;;;5053430;28;20514;-67
2022/07/21 04:12:27;;;;;;;22.53;16.17;;;18.80;99.90;;;;;;5053594;28;20498;-74
2022/07/21 04:14:54;;;;;;;25.70;16.30;;;18.80;99.90;;;;;;5053080;28;20922;-67
2022/07/21 04:17:19;;;;;;;26.00;17.37;;;18.70;99.90;;;;;;5054553;28;20401;-73
2022/07/21 04:19:48;;;;;;;28.27;16.33;;;18.80;99.90;;;;;;5052284;28;20425;-73
2022/07/21 04:22:20;;;;;;;21.60;16.60;;;18.80;99.90;;;;;;5053627;28;20170;-69
2022/07/21 04:24:46;;;;;;;27.63;17.67;;;18.80;99.90;;;;;;5054070;28;20421;-73
2022/07/21 04:27:12;;;;;;;25.80;17.03;;;18.80;99.90;;;;;;5052876;28;20472;-68
2022/07/21 04:29:38;;;;;;;23.70;16.57;;;18.80;99.90;;;;;;5054119;28;20273;-73
2022/07/21 04:32:04;;;;;;;21.10;16.17;;;18.90;99.90;;;;;;5053982;28;20527;-67
2022/07/21 04:34:30;;;;;;;20.30;15.47;;;19.00;99.90;;;;;;5053421;28;20194;-73
2022/07/21 04:36:56;;;;;;;19.43;16.23;;;19.10;99.90;;;;;;5053964;28;20750;-73
2022/07/21 04:39:22;;;;;;;25.00;15.80;;;19.00;99.90;;;;;;5052175;28;20228;-74
2022/07/21 04:41:48;;;;;;;21.07;15.70;;;19.10;99.90;;;;;;5053974;28;20650;-73
2022/07/21 04:44:14;;;;;;;27.73;15.77;;;19.10;99.90;;;;;;5053052;28;20933;-67
2022/07/21 04:46:39;;;;;;;24.27;16.90;;;19.20;99.90;;;;;;5052395;28;20504;-73
2022/07/21 04:49:05;;;;;;;24.40;15.87;;;19.30;99.90;;;;;;5053884;28;20417;-73
2022/07/21 04:51:32;;;;;;;27.20;16.53;;;19.20;99.90;;;;;;5052675;28;20236;-73
2022/07/21 04:53:57;;;;;;;21.57;16.00;;;19.30;99.90;;;;;;5052934;28;20420;-73
2022/07/21 04:56:23;;;;;;;31.83;16.30;;;19.30;99.90;;;;;;5051969;28;20414;-73
2022/07/21 04:58:49;;;;;;;26.70;18.07;;;19.30;99.90;;;;;;5052057;28;20417;-68
2022/07/21 05:01:17;;;;;;;31.63;16.63;;;19.20;99.90;;;;;;5053604;28;20208;-67
2022/07/21 05:03:43;;;;;;;19.83;15.80;;;19.10;99.90;;;;;;5053015;28;20567;-74
2022/07/21 05:06:09;;;;;;;26.40;18.10;;;19.20;99.90;;;;;;5052317;28;20408;-74
2022/07/21 05:08:35;;;;;;;22.07;15.47;;;19.20;99.90;;;;;;5053609;28;20398;-68
2022/07/21 05:11:01;;;;;;;20.00;14.10;;;19.20;99.90;;;;;;5053289;28;20256;-73
2022/07/21 05:13:30;;;;;;;24.87;16.20;;;19.20;99.90;;;;;;5051256;28;20456;-74
2022/07/21 05:15:56;;;;;;;21.13;14.67;;;19.30;99.90;;;;;;5053016;28;20401;-74
2022/07/21 05:18:22;;;;;;;20.87;15.17;;;19.30;99.90;;;;;;5052085;28;20405;-74
2022/07/21 05:20:48;;;;;;;31.07;14.07;;;19.30;99.90;;;;;;5053339;28;20397;-74
2022/07/21 05:23:14;;;;;;;24.37;14.60;;;19.50;99.90;;;;;;5052571;28;20402;-75
2022/07/21 05:25:39;;;;;;;28.20;13.97;;;19.50;99.90;;;;;;5053267;28;20429;-74
2022/07/21 05:28:06;;;;;;;22.23;13.07;;;19.50;99.90;;;;;;5053316;28;20416;-74
2022/07/21 05:30:35;;;;;;;27.17;12.73;;;19.50;99.90;;;;;;5052714;28;20518;-68
2022/07/21 05:33:01;;;;;;;19.60;11.70;;;19.60;99.90;;;;;;5051081;28;20456;-71
2022/07/21 05:36:04;;;;;;;22.77;11.93;;;19.50;99.90;;;;;;5053120;28;20413;-72
2022/07/21 05:38:36;;;;;;;17.53;12.23;;;19.60;99.90;;;;;;5053086;28;20397;-72
2022/07/21 05:41:03;;;;;;;20.80;12.70;;;19.60;99.90;;;;;;5053002;28;20426;-73
2022/07/21 05:43:30;;;;;;;16.43;10.90;;;19.50;99.90;;;;;;5052308;28;20416;-75
2022/07/21 05:45:56;;;;;;;13.83;10.33;;;19.60;99.90;;;;;;5053201;28;20456;-74
2022/07/21 05:48:22;;;;;;;21.93;10.93;;;19.70;99.90;;;;;;5051158;28;20770;-75
2022/07/21 05:50:48;;;;;;;11.63;8.60;;;19.80;99.90;;;;;;5051604;28;20408;-73
2022/07/21 05:53:16;;;;;;;14.57;9.60;;;19.90;99.90;;;;;;5050875;28;20461;-72
2022/07/21 05:55:42;;;;;;;13.43;9.53;;;19.90;99.90;;;;;;5051761;28;20202;-73
2022/07/21 05:58:12;;;;;;;24.67;9.70;;;20.00;99.90;;;;;;5053087;28;20412;-74
2022/07/21 06:00:38;;;;;;;21.13;10.43;;;19.90;99.90;;;;;;5051641;28;20887;-74
2022/07/21 06:03:04;;;;;;;15.87;9.87;;;19.90;99.90;;;;;;5051049;28;20417;-73
2022/07/21 06:05:30;;;;;;;12.00;8.23;;;20.00;99.90;;;;;;5052801;28;20430;-72
2022/07/21 06:07:56;;;;;;;20.67;10.77;;;19.90;99.90;;;;;;5051431;28;20420;-73
2022/07/21 06:14:06;;;;;;;13.83;8.60;;;20.20;99.90;;;;;;5051711;28;20945;-73
2022/07/21 06:16:32;;;;;;;17.60;10.47;;;20.30;99.90;;;;;;5052834;28;20401;-74
2022/07/21 06:18:59;;;;;;;13.00;8.50;;;20.40;99.90;;;;;;5052955;28;20394;-73
2022/07/21 06:21:24;;;;;;;13.63;9.63;;;20.60;99.90;;;;;;5051758;28;20416;-75
2022/07/21 06:23:50;;;;;;;17.37;10.10;;;20.70;99.90;;;;;;5050792;28;20511;-75
2022/07/21 06:26:19;;;;;;;13.77;9.13;;;20.80;99.90;;;;;;5052431;28;20396;-74
2022/07/21 06:28:45;;;;;;;23.57;10.83;;;20.80;99.90;;;;;;5052672;28;20393;-68
2022/07/21 06:31:10;;;;;;;16.47;10.27;;;20.80;99.90;;;;;;5053669;28;20401;-73
2022/07/21 06:33:36;;;;;;;16.30;10.10;;;20.90;99.90;;;;;;5055461;28;20259;-73
2022/07/21 06:36:02;;;;;;;15.13;10.77;;;20.90;99.90;;;;;;5055030;28;20167;-68
2022/07/21 06:38:28;;;;;;;16.10;9.50;;;21.00;99.90;;;;;;5055208;28;20458;-68
2022/07/21 06:40:54;;;;;;;15.47;10.60;;;21.10;99.90;;;;;;5055868;28;20500;-73
2022/07/21 06:43:20;;;;;;;13.80;9.27;;;21.10;99.90;;;;;;5053569;28;20450;-69
2022/07/21 06:45:46;;;;;;;13.97;9.70;;;21.10;99.90;;;;;;5054725;28;20413;-73
2022/07/21 06:48:12;;;;;;;14.57;9.90;;;21.20;99.90;;;;;;5056103;28;20197;-68
2022/07/21 06:50:38;;;;;;;22.03;11.03;;;21.20;99.90;;;;;;5055989;28;20905;-74
2022/07/21 06:53:05;;;;;;;19.03;9.77;;;21.20;99.90;;;;;;5055291;28;20199;-68
2022/07/21 06:55:31;;;;;;;17.13;9.23;;;21.30;99.90;;;;;;5055777;28;20516;-74
2022/07/21 06:57:57;;;;;;;20.00;11.03;;;21.30;99.90;;;;;;5054536;28;20420;-68
2022/07/21 07:00:27;;;;;;;15.70;9.00;;;21.30;99.90;;;;;;5054195;28;20448;-70
2022/07/21 07:02:53;;;;;;;12.70;9.53;;;21.20;99.90;;;;;;5054977;28;20448;-68
2022/07/21 07:05:18;;;;;;;22.83;11.73;;;21.30;99.90;;;;;;5056339;28;20453;-68
2022/07/21 07:07:47;;;;;;;19.53;10.97;;;21.40;99.90;;;;;;5055655;28;20171;-68
2022/07/21 07:10:16;;;;;;;14.30;8.50;;;21.40;99.90;;;;;;5054433;28;20641;-69
2022/07/21 07:12:42;;;;;;;19.33;9.67;;;21.50;99.90;;;;;;5055167;28;20537;-68
2022/07/21 07:15:08;;;;;;;10.13;8.90;;;21.50;99.90;;;;;;5055617;28;20471;-68
2022/07/21 07:17:34;;;;;;;12.43;9.30;;;21.60;99.90;;;;;;5054163;28;20413;-73
2022/07/21 07:20:00;;;;;;;13.23;8.40;;;21.60;99.90;;;;;;5054602;28;20412;-68
2022/07/21 07:22:26;;;;;;;12.93;8.60;;;21.60;99.90;;;;;;5054556;28;20418;-73
2022/07/21 07:24:52;;;;;;;12.57;7.93;;;21.70;99.90;;;;;;5053932;28;20198;-68
2022/07/21 07:33:46;;;;;;;8.80;7.93;;;21.80;99.90;;;;;;5054454;28;20428;-68
2022/07/21 07:36:12;;;;;;;8.70;6.77;;;21.90;99.90;;;;;;5053776;28;20462;-68
2022/07/21 07:38:39;;;;;;;15.47;7.43;;;21.90;99.90;;;;;;5054795;28;20404;-68
2022/07/21 07:41:05;;;;;;;13.37;7.87;;;22.00;99.90;;;;;;5055072;28;20386;-67
2022/07/21 07:43:38;;;;;;;13.03;7.40;;;22.00;99.90;;;;;;5053969;28;20404;-67
2022/07/21 07:46:05;;;;;;;7.63;6.90;;;22.10;99.90;;;;;;5054846;28;20163;-74
2022/07/21 07:48:36;;;;;;;9.23;6.40;;;22.30;99.90;;;;;;5055071;28;20412;-67
2022/07/21 07:51:01;;;;;;;13.13;8.37;;;22.40;99.90;;;;;;5054957;28;20889;-67
2022/07/21 07:53:27;;;;;;;11.73;7.40;;;22.60;99.90;;;;;;5053919;28;20467;-72
2022/07/21 07:55:53;;;;;;;10.43;6.77;;;22.90;96.80;;;;;;5053605;28;20236;-72
2022/07/21 07:58:18;;;;;;;10.57;8.40;;;23.10;98.40;;;;;;5054298;28;20166;-73
2022/07/21 08:00:44;;;;;;;7.23;6.50;;;23.30;96.90;;;;;;5054838;28;20669;-68
2022/07/21 08:03:10;;;;;;;8.00;7.27;;;23.30;87.00;;;;;;5052953;28;20623;-73
2022/07/21 08:05:35;;;;;;;8.70;7.67;;;23.40;68.50;;;;;;5054505;28;20183;-68
2022/07/21 08:08:01;;;;;;;9.80;6.80;;;23.60;38.70;;;;;;5053707;28;20616;-73
2022/07/21 08:10:27;;;;;;;9.00;7.33;;;23.60;29.90;;;;;;5053175;28;20190;-68
2022/07/21 08:12:53;;;;;;;7.80;6.60;;;23.70;12.80;;;;;;5053881;28;20272;-73
2022/07/21 08:15:18;;;;;;;6.73;6.10;;;23.70;16.60;;;;;;5054452;28;20183;-68
2022/07/21 08:17:44;;;;;;;10.33;5.90;;;23.80;9.40;;;;;;5053968;28;20293;-73
2022/07/21 08:20:10;;;;;;;6.77;6.17;;;23.80;2.10;;;;;;5054422;28;20632;-69
2022/07/21 08:22:36;;;;;;;7.57;6.63;;;23.80;1.00;;;;;;5053668;28;20171;-69
2022/07/21 08:25:02;;;;;;;10.87;6.53;;;23.80;7.00;;;;;;5054099;28;20425;-73
2022/07/21 08:27:28;;;;;;;6.30;5.67;;;23.70;1.00;;;;;;5053167;28;20194;-73
2022/07/21 08:29:54;;;;;;;6.20;5.30;;;23.60;1.00;;;;;;5052911;28;20440;-73
2022/07/21 08:32:19;;;;;;;5.87;4.70;;;23.50;1.00;;;;;;5053319;28;20686;-68
2022/07/21 08:34:46;;;;;;;10.23;6.33;;;23.40;1.00;;;;;;5053955;28;20182;-68
2022/07/21 08:37:11;;;;;;;9.47;6.07;;;23.50;2.30;;;;;;5053594;28;20194;-68
2022/07/21 08:39:37;;;;;;;7.70;5.73;;;23.40;1.00;;;;;;5052747;28;20909;-75
2022/07/21 08:42:07;;;;;;;6.10;4.77;;;23.30;1.00;;;;;;5052762;28;20186;-69
2022/07/21 08:44:33;;;;;;;8.83;5.30;;;23.20;1.00;;;;;;5053272;28;20253;-74
2022/07/21 08:47:00;;;;;;;7.67;6.40;;;23.10;1.00;;;;;;5053910;28;20448;-68
2022/07/21 08:49:27;;;;;;;7.17;5.67;;;23.10;1.00;;;;;;5053938;28;20408;-74
2022/07/21 08:51:53;;;;;;;12.27;5.47;;;23.10;1.00;;;;;;5053692;28;20441;-68
2022/07/21 08:54:22;;;;;;;5.37;4.87;;;23.20;1.00;;;;;;5052286;28;20414;-75
2022/07/21 08:56:48;;;;;;;8.40;5.40;;;23.20;1.00;;;;;;5053175;28;20412;-74
2022/07/21 08:59:14;;;;;;;7.20;5.43;;;23.30;1.00;;;;;;5053776;28;20393;-73
2022/07/21 09:01:40;;;;;;;5.37;4.87;;;23.20;1.00;;;;;;5053333;28;20402;-68
2022/07/21 09:04:23;;;;;;;12.80;5.50;;;23.30;1.00;;;;;;5051086;28;20233;-74
2022/07/21 09:13:17;;;;;;;9.40;5.73;;;22.90;1.00;;;;;;5052501;28;20559;-69
2022/07/21 09:15:47;;;;;;;6.70;5.40;;;22.60;1.00;;;;;;5053106;28;20440;-69
2022/07/21 09:18:15;;;;;;;9.57;5.87;;;22.50;1.00;;;;;;5053245;28;20409;-68
2022/07/21 09:20:49;;;;;;;8.20;5.47;;;22.50;13.80;;;;;;5053058;28;20432;-69
2022/07/21 09:23:20;;;;;;;6.80;5.63;;;22.50;25.90;;;;;;5052451;28;20405;-69
2022/07/21 09:25:54;;;;;;;16.40;6.00;;;22.50;47.00;;;;;;5052716;28;20412;-67
2022/07/21 09:28:28;;;;;;;9.90;5.77;;;22.50;49.00;;;;;;5053149;28;20793;-75
2022/07/21 09:31:09;;;;;;;8.93;5.40;;;22.60;60.40;;;;;;5051629;28;20801;-75
2022/07/21 09:33:35;;;;;;;7.37;5.20;;;22.60;77.60;;;;;;5052511;28;20457;-69
2022/07/21 09:36:03;;;;;;;11.00;5.70;;;22.40;79.70;;;;;;5053122;28;20405;-74
2022/07/21 09:38:32;;;;;;;8.13;6.37;;;22.60;88.80;;;;;;5053254;28;20415;-68
2022/07/21 09:41:06;;;;;;;7.97;5.77;;;22.60;81.10;;;;;;5053106;28;20484;-75
2022/07/21 09:43:33;;;;;;;6.20;4.90;;;22.60;79.30;;;;;;5052320;28;20474;-75
2022/07/21 09:46:02;;;;;;;7.10;5.10;;;22.50;78.40;;;;;;5053158;28;20401;-69
2022/07/21 09:48:35;;;;;;;12.50;5.83;;;22.50;89.80;;;;;;5052611;28;20413;-69
2022/07/21 09:51:21;;;;;;;11.43;6.57;;;22.80;92.30;;;;;;5053057;28;20455;-72
2022/07/21 09:53:49;;;;;;;9.23;4.67;;;23.30;83.60;;;;;;5051694;28;20476;-67
2022/07/21 09:56:17;;;;;;;10.87;4.40;;;23.60;59.60;;;;;;5051765;28;20413;-68
2022/07/21 09:58:47;;;;;;;8.30;4.83;;;23.90;60.50;;;;;;5052967;28;20444;-74
2022/07/21 10:01:13;;;;;;;11.10;4.10;;;24.00;39.60;;;;;;5052823;28;20531;-72
2022/07/21 10:03:39;;;;;;;6.87;4.37;;;24.30;37.70;;;;;;5052216;28;20425;-68
2022/07/21 10:06:06;;;;;;;5.03;4.27;;;24.40;42.40;;;;;;5055547;28;20416;-68
2022/07/21 10:08:34;;;;;;;7.53;4.40;;;24.40;21.20;;;;;;5056501;28;20409;-73
2022/07/21 10:11:00;;;;;;;4.70;4.30;;;24.70;5.30;;;;;;5056716;28;20409;-74
2022/07/21 10:13:27;;;;;;;6.90;4.70;;;25.10;13.60;;;;;;5055802;28;20548;-68
2022/07/21 10:15:56;;;;;;;6.17;3.47;;;25.80;10.50;;;;;;5055336;28;20182;-74
2022/07/21 10:18:36;;;;;;;3.90;3.27;;;26.30;1.00;;;;;;5056716;28;20401;-75
2022/07/21 10:21:26;;;;;;;6.00;3.13;;;26.70;1.00;;;;;;5056660;28;20401;-74
2022/07/21 10:23:54;;;;;;;5.63;3.30;;;26.90;1.00;;;;;;5055801;28;20440;-76
2022/07/21 10:26:20;;;;;;;5.90;3.90;;;26.50;1.00;;;;;;5056103;28;20428;-74
2022/07/21 10:28:46;;;;;;;5.80;3.77;;;26.70;1.00;;;;;;5056532;28;20893;-69
2022/07/21 10:31:23;;;;;;;5.23;3.90;;;26.60;1.00;;;;;;5056534;28;20409;-68
2022/07/21 10:33:49;;;;;;;10.67;4.30;;;26.10;1.00;;;;;;5055549;28;20209;-69
2022/07/21 10:36:27;;;;;;;8.83;4.20;;;25.60;1.00;;;;;;5056418;28;20405;-75
2022/07/21 10:39:13;;;;;;;6.50;3.83;;;25.20;1.00;;;;;;5056288;28;20175;-76
2022/07/21 10:41:51;;;;;;;7.73;3.33;;;25.00;1.00;;;;;;5056221;28;20408;-75
2022/07/21 10:44:30;;;;;;;9.80;5.93;;;25.20;1.00;;;;;;5055354;28;20424;-74
2022/07/21 10:47:13;;;;;;;9.90;4.40;;;25.10;1.00;;;;;;5055812;28;20405;-76
2022/07/21 10:50:01;;;;;;;7.07;4.07;;;24.90;1.00;;;;;;5056042;28;20825;-76
2022/07/21 10:52:35;;;;;;;6.53;4.13;;;24.90;1.00;;;;;;5055457;28;20484;-70
2022/07/21 10:55:10;;;;;;;9.33;5.63;;;24.90;1.00;;;;;;5055891;28;20916;-69
2022/07/21 10:57:47;;;;;;;6.97;4.87;;;24.80;1.00;;;;;;5055819;28;20941;-75
2022/07/21 11:00:33;;;;;;;4.47;4.07;;;24.80;1.00;;;;;;5056024;28;20408;-75
2022/07/21 11:03:01;;;;;;;3.67;3.37;;;24.80;1.00;;;;;;5055053;28;20433;-75
2022/07/21 11:05:30;;;;;;;5.57;4.10;;;24.80;1.00;;;;;;5055480;28;20422;-74
2022/07/21 11:08:08;;;;;;;8.13;4.80;;;24.50;1.00;;;;;;5055614;28;20466;-75
2022/07/21 11:10:36;;;;;;;12.23;4.77;;;25.00;1.00;;;;;;5055674;28;20420;-70
2022/07/21 11:13:02;;;;;;;6.17;4.47;;;26.10;1.00;;;;;;5054939;28;20460;-74
2022/07/21 11:15:57;;;;;;;4.83;4.30;;;26.60;1.00;;;;;;5055385;28;20481;-68
2022/07/21 11:18:25;;;;;;;5.03;4.43;;;27.10;1.00;;;;;;5055235;28;20923;-74
2022/07/21 11:21:09;;;;;;;5.53;4.90;;;27.20;1.00;;;;;;5055497;28;20401;-69
2022/07/21 11:23:43;;;;;;;7.47;4.40;;;27.30;1.00;;;;;;5053333;28;20469;-75
2022/07/21 11:26:11;;;;;;;5.87;4.77;;;27.90;1.00;;;;;;5055479;28;20423;-69
2022/07/21 11:28:37;;;;;;;6.33;5.10;;;27.50;1.00;;;;;;5055420;28;20824;-67
2022/07/21 11:31:21;;;;;;;6.33;4.77;;;27.30;1.00;;;;;;5055180;28;20446;-68
2022/07/21 11:33:49;;;;;;;8.40;6.90;;;27.80;1.00;;;;;;5054457;28;20802;-70
2022/07/21 11:36:30;;;;;;;5.70;5.17;;;27.60;1.00;;;;;;5055275;28;20406;-74
2022/07/21 11:39:11;;;;;;;6.43;5.50;;;27.70;1.00;;;;;;5055200;28;20403;-75
2022/07/21 11:41:39;;;;;;;10.07;6.13;;;28.00;1.00;;;;;;5054704;28;20416;-77
2022/07/21 11:44:06;;;;;;;7.13;5.30;;;28.40;1.00;;;;;;5054228;28;20425;-75
2022/07/21 11:46:53;;;;;;;8.00;7.20;;;28.50;1.00;;;;;;5055097;28;20397;-69
2022/07/21 11:49:20;;;;;;;10.20;7.10;;;28.20;1.00;;;;;;5055036;28;20772;-76
2022/07/21 11:51:56;;;;;;;8.53;6.03;;;27.60;1.00;;;;;;5054820;28;20398;-76
2022/07/21 11:54:34;;;;;;;6.93;6.30;;;27.20;1.00;;;;;;5054193;28;20425;-70
2022/07/21 11:57:02;;;;;;;8.43;7.30;;;27.10;1.00;;;;;;5054864;28;20405;-76
2022/07/21 11:59:29;;;;;;;11.80;7.33;;;27.00;1.00;;;;;;5053039;28;20413;-69
2022/07/21 12:01:59;;;;;;;10.40;9.37;;;26.90;1.00;;;;;;5053178;28;20828;-74
2022/07/21 12:04:38;;;;;;;10.50;8.73;;;26.30;1.00;;;;;;5054077;28;20457;-76
2022/07/21 12:07:07;;;;;;;10.70;9.60;;;26.00;1.00;;;;;;5054661;28;20409;-76
2022/07/21 12:09:33;;;;;;;10.50;9.47;;;25.80;1.00;;;;;;5054529;28;20906;-68
2022/07/21 12:11:59;;;;;;;14.77;9.87;;;25.80;1.00;;;;;;5054205;28;20449;-76
2022/07/21 12:14:42;;;;;;;14.50;10.13;;;25.70;1.00;;;;;;5053704;28;20520;-68
2022/07/21 12:17:08;;;;;;;13.63;10.80;;;25.40;1.00;;;;;;5054527;28;20404;-68
2022/07/21 12:19:35;;;;;;;15.30;10.20;;;25.20;1.00;;;;;;5054049;28;20398;-75
2022/07/21 12:22:01;;;;;;;18.10;10.90;;;25.00;1.00;;;;;;5054147;28;20424;-75
2022/07/21 12:25:03;;;;;;;14.23;11.10;;;24.80;1.00;;;;;;5053692;28;20967;-74
2022/07/21 12:27:28;;;;;;;12.57;9.60;;;25.00;1.00;;;;;;5052318;28;20186;-75
2022/07/21 12:29:54;;;;;;;12.73;10.23;;;25.30;1.00;;;;;;5052847;28;20414;-75
2022/07/21 12:32:44;;;;;;;10.70;8.63;;;25.80;1.00;;;;;;5053423;28;20203;-76
2022/07/21 12:35:24;;;;;;;12.73;9.83;;;26.60;1.00;;;;;;5053951;28;20186;-75
2022/07/21 12:37:54;;;;;;;15.97;9.90;;;26.70;1.00;;;;;;5053755;28;20393;-68
2022/07/21 12:40:20;;;;;;;12.40;10.10;;;26.70;1.00;;;;;;5053871;28;20555;-68
2022/07/21 12:42:47;;;;;;;18.40;12.57;;;26.60;1.00;;;;;;5053296;28;20402;-68
2022/07/21 12:45:18;;;;;;;11.90;9.60;;;26.40;1.00;;;;;;5053979;28;20428;-75
2022/07/21 12:48:04;;;;;;;10.73;8.00;;;25.90;1.00;;;;;;5052570;28;20770;-75
2022/07/21 12:50:29;;;;;;;8.07;7.00;;;25.70;1.00;;;;;;5053653;28;20466;-75
2022/07/21 12:52:55;;;;;;;6.83;5.83;;;25.40;1.00;;;;;;5053004;28;20457;-68
2022/07/21 12:55:21;;;;;;;7.00;5.73;;;25.30;1.00;;;;;;5053319;28;20183;-68
2022/07/21 12:57:46;;;;;;;7.77;5.80;;;25.10;1.00;;;;;;5053753;28;20167;-68
2022/07/21 13:00:12;;;;;;;6.17;5.50;;;24.80;1.00;;;;;;5052615;28;20179;-75
2022/07/21 13:02:50;;;;;;;6.40;5.70;;;24.60;1.00;;;;;;5052838;28;20199;-73
2022/07/21 13:05:16;;;;;;;6.40;5.63;;;24.40;1.00;;;;;;5052242;28;20437;-67
2022/07/21 13:07:42;;;;;;;4.90;4.40;;;24.20;1.00;;;;;;5052449;28;20448;-68
2022/07/21 13:10:08;;;;;;;6.23;5.60;;;24.30;1.00;;;;;;5053568;28;20441;-67
2022/07/21 13:12:34;;;;;;;5.37;4.97;;;24.40;1.00;;;;;;5052596;28;20549;-69
2022/07/21 13:14:59;;;;;;;4.97;4.60;;;24.60;1.00;;;;;;5052827;28;20445;-75
2022/07/21 13:17:25;;;;;;;5.40;4.87;;;24.80;1.00;;;;;;5053435;28;20523;-67
2022/07/21 13:19:51;;;;;;;4.67;4.27;;;25.00;1.00;;;;;;5053630;28;20171;-68
2022/07/21 13:22:18;;;;;;;4.80;4.03;;;25.20;1.00;;;;;;5052838;28;20662;-74